createdAt,value
2023-10-09T00:02:27.833Z,62.49
2023-10-09T00:05:24.216Z,62.50
2023-10-09T00:08:10.627Z,62.18
2023-10-09T00:10:56.274Z,62.35
2023-10-09T00:13:51.150Z,62.60
2023-10-09T00:16:37.768Z,62.06
2023-10-09T00:19:32.653Z,61.83
2023-10-09T00:22:28.102Z,62.02
2023-10-09T00:25:14.017Z,62.48
2023-10-09T00:28:00.838Z,61.53
2023-10-09T00:30:46.473Z,61.89
2023-10-09T00:33:31.708Z,61.60
2023-10-09T00:36:20.985Z,61.58
2023-10-09T00:39:14.534Z,61.19
2023-10-09T00:42:02.279Z,61.12
2023-10-09T00:44:49.784Z,61.04
2023-10-09T00:47:35.834Z,61.03
2023-10-09T00:50:21.559Z,60.97
2023-10-09T00:53:13.638Z,60.80
2023-10-09T00:56:12.453Z,60.81
2023-10-09T00:59:10.036Z,60.75
2023-10-09T01:02:06.119Z,60.74
2023-10-09T01:04:51.654Z,60.56
2023-10-09T01:07:41.138Z,60.55
2023-10-09T01:10:34.251Z,60.60
2023-10-09T01:13:19.598Z,60.46
2023-10-09T01:16:06.722Z,60.33
2023-10-09T01:18:54.609Z,60.40
2023-10-09T01:21:43.652Z,60.23
2023-10-09T01:24:32.870Z,60.28
2023-10-09T01:27:18.455Z,60.19
2023-10-09T01:30:04.141Z,60.38
2023-10-09T01:32:49.826Z,60.19
2023-10-09T01:35:35.108Z,60.30
2023-10-09T01:38:31.311Z,60.28
2023-10-09T01:41:21.185Z,60.26
2023-10-09T01:44:11.405Z,60.16
2023-10-09T01:46:59.200Z,60.40
2023-10-09T01:49:44.903Z,60.23
2023-10-09T01:52:31.276Z,60.28
2023-10-09T01:55:34.929Z,60.28
2023-10-09T01:58:23.049Z,60.33
2023-10-09T02:01:08.753Z,60.16
2023-10-09T02:03:55.596Z,60.16
2023-10-09T02:06:41.265Z,60.18
2023-10-09T02:09:32.576Z,60.01
2023-10-09T02:12:19.067Z,60.10
2023-10-09T02:15:16.808Z,60.11
2023-10-09T02:18:17.405Z,60.04
2023-10-09T02:21:03.314Z,59.99
2023-10-09T02:23:51.895Z,59.97
2023-10-09T02:26:40.182Z,60.00
2023-10-09T02:29:25.946Z,59.91
2023-10-09T02:32:26.776Z,59.96
2023-10-09T02:35:32.471Z,59.98
2023-10-09T02:38:18.722Z,59.92
2023-10-09T02:41:04.422Z,59.95
2023-10-09T02:43:56.345Z,59.83
2023-10-09T02:46:41.950Z,59.84
2023-10-09T02:49:28.199Z,59.86
2023-10-09T02:52:18.242Z,59.92
2023-10-09T02:55:09.202Z,59.85
2023-10-09T02:58:06.429Z,59.85
2023-10-09T03:00:52.849Z,59.77
2023-10-09T03:03:39.628Z,59.75
2023-10-09T03:06:29.794Z,59.81
2023-10-09T03:09:18.060Z,59.79
2023-10-09T03:12:06.024Z,59.70
2023-10-09T03:14:51.927Z,59.69
2023-10-09T03:17:37.633Z,59.78
2023-10-09T03:20:22.855Z,59.81
2023-10-09T03:23:08.992Z,59.72
2023-10-09T03:25:59.150Z,59.76
2023-10-09T03:28:50.761Z,59.66
2023-10-09T03:31:37.732Z,59.71
2023-10-09T03:34:24.937Z,59.71
2023-10-09T03:37:23.396Z,59.62
2023-10-09T03:40:09.910Z,59.66
2023-10-09T03:42:55.600Z,59.60
2023-10-09T03:45:53.740Z,59.71
2023-10-09T03:48:39.120Z,59.83
2023-10-09T03:51:24.857Z,59.51
2023-10-09T03:54:10.431Z,59.53
2023-10-09T03:57:00.059Z,59.68
2023-10-09T03:59:48.230Z,60.09
2023-10-09T04:02:33.789Z,59.46
2023-10-09T04:05:19.287Z,59.46
2023-10-09T04:08:13.362Z,59.56
2023-10-09T04:11:05.500Z,59.57
2023-10-09T04:13:53.390Z,59.51
2023-10-09T04:16:53.089Z,59.56
2023-10-09T04:19:49.300Z,59.44
2023-10-09T04:22:40.186Z,59.29
2023-10-09T04:25:30.731Z,59.57
2023-10-09T04:28:16.177Z,59.68
2023-10-09T04:31:07.385Z,59.79
2023-10-09T04:33:56.423Z,59.74
2023-10-09T04:36:47.809Z,59.80
2023-10-09T04:39:33.426Z,59.56
2023-10-09T04:42:37.381Z,59.82
2023-10-09T04:45:42.862Z,59.82
2023-10-09T04:48:34.416Z,59.67
2023-10-09T04:51:23.276Z,59.87
2023-10-09T04:54:14.552Z,59.72
2023-10-09T04:57:01.101Z,59.52
2023-10-09T04:59:48.495Z,59.60
2023-10-09T05:02:38.281Z,59.62
2023-10-09T05:05:43.402Z,59.71
2023-10-09T05:08:29.233Z,59.75
2023-10-09T05:11:33.191Z,59.75
2023-10-09T05:14:20.820Z,59.75
2023-10-09T05:17:10.372Z,59.57
2023-10-09T05:20:18.512Z,59.64
2023-10-09T05:23:24.619Z,59.71
2023-10-09T05:26:30.106Z,59.61
2023-10-09T05:29:33.671Z,59.83
2023-10-09T05:32:29.193Z,59.83
2023-10-09T05:35:21.091Z,59.78
2023-10-09T05:38:16.266Z,59.70
2023-10-09T05:41:21.685Z,59.80
2023-10-09T05:44:25.399Z,59.88
2023-10-09T05:47:28.765Z,59.86
2023-10-09T05:50:15.077Z,59.79
2023-10-09T05:53:03.060Z,60.21
2023-10-09T05:56:06.685Z,59.82
2023-10-09T05:59:15.006Z,59.30
2023-10-09T06:02:00.744Z,57.35
2023-10-09T06:04:55.456Z,57.46
2023-10-09T06:08:01.157Z,56.41
2023-10-09T06:10:48.716Z,54.99
2023-10-09T06:13:42.187Z,54.58
2023-10-09T06:16:43.090Z,54.28
2023-10-09T06:19:33.065Z,55.64
2023-10-09T06:22:36.923Z,55.42
2023-10-09T06:25:34.177Z,56.84
2023-10-09T06:28:20.802Z,57.36
2023-10-09T06:31:25.941Z,56.88
2023-10-09T06:34:16.604Z,57.20
2023-10-09T06:37:28.940Z,57.55
2023-10-09T06:40:32.855Z,57.58
2023-10-09T06:43:22.627Z,57.77
2023-10-09T06:46:23.114Z,57.92
2023-10-09T06:49:28.590Z,58.20
2023-10-09T06:52:17.036Z,58.19
2023-10-09T06:55:10.641Z,58.45
2023-10-09T06:57:55.820Z,58.72
2023-10-09T07:01:02.066Z,58.44
2023-10-09T07:03:53.760Z,57.70
2023-10-09T07:06:39.526Z,58.36
2023-10-09T07:09:28.624Z,58.57
2023-10-09T07:12:27.442Z,58.50
2023-10-09T07:15:12.887Z,58.48
2023-10-09T07:18:18.376Z,58.37
2023-10-09T07:21:12.455Z,58.30
2023-10-09T07:24:05.699Z,58.42
2023-10-09T07:26:54.156Z,58.07
2023-10-09T07:29:49.050Z,58.05
2023-10-09T07:32:36.605Z,58.21
2023-10-09T07:35:41.868Z,58.20
2023-10-09T07:38:36.860Z,58.18
2023-10-09T07:41:22.193Z,58.19
2023-10-09T07:44:20.352Z,58.29
2023-10-09T07:47:26.898Z,58.36
2023-10-09T07:50:22.546Z,58.51
2023-10-09T07:53:27.823Z,58.44
2023-10-09T07:56:19.618Z,58.38
2023-10-09T07:59:11.803Z,58.43
2023-10-09T08:02:00.412Z,58.32
2023-10-09T08:04:54.535Z,58.41
2023-10-09T08:08:08.442Z,58.69
2023-10-09T08:11:17.819Z,58.51
2023-10-09T08:14:03.904Z,58.62
2023-10-09T08:17:07.004Z,58.64
2023-10-09T08:19:55.683Z,58.52
2023-10-09T08:22:44.891Z,58.58
2023-10-09T08:25:33.468Z,58.65
2023-10-09T08:28:37.373Z,58.62
2023-10-09T08:31:48.828Z,58.18
2023-10-09T08:37:38.582Z,58.51
2023-10-09T08:40:34.465Z,58.72
2023-10-09T08:43:21.223Z,58.73
2023-10-09T08:46:07.203Z,58.79
2023-10-09T08:48:52.463Z,58.98
2023-10-09T08:51:39.042Z,58.95
2023-10-09T08:54:25.094Z,58.91
2023-10-09T08:57:11.224Z,58.94
2023-10-09T08:59:58.095Z,59.13
2023-10-09T09:02:44.396Z,58.92
2023-10-09T09:05:30.075Z,59.07
2023-10-09T09:08:31.722Z,58.92
2023-10-09T09:11:21.225Z,59.05
2023-10-09T09:14:19.861Z,59.02
2023-10-09T09:17:12.311Z,59.00
2023-10-09T09:19:58.781Z,58.92
2023-10-09T09:22:57.474Z,58.94
2023-10-09T09:25:49.425Z,58.94
2023-10-09T09:28:40.174Z,59.10
2023-10-09T09:31:26.085Z,59.06
2023-10-09T09:34:17.744Z,59.12
2023-10-09T09:37:05.611Z,59.16
2023-10-09T09:39:56.211Z,59.17
2023-10-09T09:42:49.628Z,59.46
2023-10-09T09:45:39.872Z,59.39
2023-10-09T09:48:27.200Z,59.50
2023-10-09T09:51:16.226Z,59.43
2023-10-09T09:54:03.940Z,59.38
2023-10-09T09:56:52.857Z,59.44
2023-10-09T09:59:51.125Z,59.42
2023-10-09T10:02:39.213Z,59.48
2023-10-09T10:05:30.909Z,59.58
2023-10-09T10:08:22.907Z,59.67
2023-10-09T10:11:15.240Z,59.73
2023-10-09T10:14:08.381Z,59.75
2023-10-09T10:17:20.291Z,60.13
2023-10-09T10:20:15.772Z,60.16
2023-10-09T10:23:22.216Z,60.36
2023-10-09T10:26:28.202Z,60.72
2023-10-09T10:29:24.332Z,60.42
2023-10-09T10:32:10.252Z,60.38
2023-10-09T10:34:59.630Z,60.25
2023-10-09T10:38:14.499Z,60.32
2023-10-09T10:41:23.568Z,60.41
2023-10-09T10:44:27.269Z,60.32
2023-10-09T10:47:35.505Z,60.33
2023-10-09T10:50:32.988Z,60.43
2023-10-09T10:53:20.662Z,60.39
2023-10-09T10:56:15.070Z,60.25
2023-10-09T10:59:00.724Z,60.72
2023-10-09T11:02:14.939Z,60.54
2023-10-09T11:05:16.126Z,60.17
2023-10-09T11:08:10.126Z,60.33
2023-10-09T11:11:11.678Z,60.21
2023-10-09T11:14:09.239Z,60.17
2023-10-09T11:16:59.524Z,59.99
2023-10-09T11:19:45.071Z,60.01
2023-10-09T11:22:30.932Z,59.87
2023-10-09T11:25:19.615Z,59.94
2023-10-09T11:28:29.119Z,60.14
2023-10-09T11:31:17.411Z,59.70
2023-10-09T11:34:04.038Z,59.64
2023-10-09T11:36:57.053Z,59.62
2023-10-09T11:39:56.819Z,59.69
2023-10-09T11:42:50.296Z,59.77
2023-10-09T11:45:39.120Z,59.69
2023-10-09T11:48:40.732Z,59.80
2023-10-09T11:51:26.239Z,59.54
2023-10-09T11:54:30.541Z,59.29
2023-10-09T11:57:18.127Z,59.54
2023-10-09T12:00:24.000Z,59.48
2023-10-09T12:03:10.524Z,59.47
2023-10-09T12:06:13.306Z,59.59
2023-10-09T12:08:59.505Z,59.53
2023-10-09T12:12:03.125Z,59.75
2023-10-09T12:14:52.698Z,59.62
2023-10-09T12:17:45.559Z,59.68
2023-10-09T12:20:31.446Z,59.67
2023-10-09T12:23:16.776Z,59.52
2023-10-09T12:26:06.132Z,59.56
2023-10-09T12:28:51.753Z,59.72
2023-10-09T12:31:37.210Z,59.80
2023-10-09T12:34:27.656Z,59.82
2023-10-09T12:37:13.629Z,59.78
2023-10-09T12:39:59.341Z,59.81
2023-10-09T12:42:47.117Z,59.77
2023-10-09T12:45:35.624Z,59.93
2023-10-09T12:48:21.123Z,60.00
2023-10-09T12:51:07.597Z,60.07
2023-10-09T12:53:58.422Z,59.99
2023-10-09T12:56:47.029Z,60.08
2023-10-09T12:59:32.419Z,59.99
2023-10-09T13:02:29.834Z,59.88
2023-10-09T13:05:27.182Z,59.90
2023-10-09T13:08:12.920Z,60.17
2023-10-09T13:11:05.642Z,60.20
2023-10-09T13:13:53.960Z,59.93
2023-10-09T13:16:39.531Z,60.02
2023-10-09T13:19:25.505Z,60.11
2023-10-09T13:22:14.686Z,60.23
2023-10-09T13:25:05.482Z,60.34
2023-10-09T13:27:54.413Z,60.37
2023-10-09T13:30:50.217Z,60.28
2023-10-09T13:33:38.190Z,60.32
2023-10-09T13:36:33.417Z,60.51
2023-10-09T13:39:25.897Z,60.54
2023-10-09T13:42:12.369Z,61.18
2023-10-09T13:44:58.009Z,61.13
2023-10-09T13:47:46.523Z,61.02
2023-10-09T13:50:34.368Z,60.89
2023-10-09T13:53:19.771Z,60.52
2023-10-09T13:56:08.018Z,60.76
2023-10-09T13:58:54.987Z,60.94
2023-10-09T14:01:40.841Z,61.05
2023-10-09T14:04:29.396Z,61.01
2023-10-09T14:07:17.974Z,61.02
2023-10-09T14:10:18.334Z,60.86
2023-10-09T14:13:13.193Z,60.86
2023-10-09T14:16:01.019Z,61.04
2023-10-09T14:18:46.452Z,60.93
2023-10-09T14:21:33.926Z,60.88
2023-10-09T14:24:20.605Z,61.03
2023-10-09T14:27:07.562Z,61.02
2023-10-09T14:29:57.654Z,61.12
2023-10-09T14:32:52.599Z,61.30
2023-10-09T14:35:40.739Z,61.43
2023-10-09T14:38:33.249Z,61.44
2023-10-09T14:41:18.499Z,61.52
2023-10-09T14:44:04.107Z,61.58
2023-10-09T14:46:50.394Z,61.60
2023-10-09T14:49:44.787Z,61.56
2023-10-09T14:52:30.177Z,61.73
2023-10-09T14:55:21.854Z,61.77
2023-10-09T14:58:07.083Z,61.47
2023-10-09T15:00:54.137Z,61.54
2023-10-09T15:03:39.648Z,61.52
2023-10-09T15:06:26.749Z,61.62
2023-10-09T15:09:22.872Z,61.74
2023-10-09T15:12:08.930Z,61.79
2023-10-09T15:14:57.759Z,61.88
2023-10-09T15:17:49.496Z,62.13
2023-10-09T15:20:36.647Z,61.98
2023-10-09T15:23:22.174Z,62.44
2023-10-09T15:26:08.322Z,62.87
2023-10-09T15:28:53.784Z,63.88
2023-10-09T15:31:40.406Z,64.92
2023-10-09T15:34:27.642Z,65.01
2023-10-09T15:37:14.399Z,64.54
2023-10-09T15:40:05.606Z,64.25
2023-10-09T15:42:51.822Z,64.18
2023-10-09T15:45:43.280Z,63.94
2023-10-09T15:48:29.137Z,63.78
2023-10-09T15:51:15.766Z,64.59
2023-10-09T15:54:02.490Z,64.61
2023-10-09T15:56:55.977Z,64.56
2023-10-09T15:59:52.682Z,64.56
2023-10-09T16:02:37.977Z,64.73
2023-10-09T16:05:27.083Z,64.48
2023-10-09T16:08:12.759Z,64.24
2023-10-09T16:10:59.844Z,64.03
2023-10-09T16:13:45.446Z,63.77
2023-10-09T16:16:32.057Z,63.77
2023-10-09T16:19:17.588Z,63.84
2023-10-09T16:22:04.697Z,64.07
2023-10-09T16:24:51.443Z,63.47
2023-10-09T16:27:37.581Z,63.89
2023-10-09T16:30:22.641Z,63.07
2023-10-09T16:33:10.005Z,62.48
2023-10-09T16:35:57.569Z,62.58
2023-10-09T16:38:44.675Z,62.55
2023-10-09T16:41:30.327Z,62.41
2023-10-09T16:44:18.910Z,62.51
2023-10-09T16:47:05.166Z,62.29
2023-10-09T16:49:52.883Z,62.33
2023-10-09T16:52:39.691Z,62.54
2023-10-09T16:55:28.195Z,62.10
2023-10-09T16:58:14.528Z,62.92
2023-10-09T17:01:01.925Z,62.35
2023-10-09T17:03:55.676Z,62.32
2023-10-09T17:06:42.198Z,62.08
2023-10-09T17:09:28.586Z,62.51
2023-10-09T17:12:18.535Z,62.19
2023-10-09T17:15:05.066Z,61.96
2023-10-09T17:17:50.839Z,61.92
2023-10-09T17:20:49.804Z,61.95
2023-10-09T17:23:35.196Z,61.96
2023-10-09T17:26:22.458Z,61.81
2023-10-09T17:29:11.447Z,61.72
2023-10-09T17:31:56.757Z,61.96
2023-10-09T17:34:44.773Z,61.87
2023-10-09T17:37:30.267Z,61.82
2023-10-09T17:40:19.511Z,61.87
2023-10-09T17:43:06.313Z,61.90
2023-10-09T17:45:55.631Z,61.90
2023-10-09T17:48:43.129Z,61.92
2023-10-09T17:51:28.886Z,61.75
2023-10-09T17:54:15.577Z,61.62
2023-10-09T17:57:01.128Z,61.68
2023-10-09T17:59:46.833Z,61.61
2023-10-09T18:02:33.147Z,61.97
2023-10-09T18:05:20.880Z,61.87
2023-10-09T18:08:08.018Z,61.61
2023-10-09T18:11:06.895Z,61.72
2023-10-09T18:13:52.306Z,61.87
2023-10-09T18:16:38.952Z,61.56
2023-10-09T18:19:24.828Z,61.48
2023-10-09T18:22:13.372Z,61.39
2023-10-09T18:24:59.422Z,61.41
2023-10-09T18:27:46.926Z,61.38
2023-10-09T18:30:33.119Z,61.59
2023-10-09T18:33:18.288Z,61.19
2023-10-09T18:36:10.668Z,61.12
2023-10-09T18:38:56.612Z,61.28
2023-10-09T18:41:45.778Z,61.25
2023-10-09T18:44:31.219Z,61.22
2023-10-09T18:47:20.590Z,61.25
2023-10-09T18:50:13.483Z,61.22
2023-10-09T18:53:03.471Z,61.23
2023-10-09T18:55:52.084Z,61.13
2023-10-09T18:58:37.702Z,61.15
2023-10-09T19:01:24.012Z,61.39
2023-10-09T19:04:09.727Z,61.32
2023-10-09T19:06:55.666Z,61.18
2023-10-09T19:09:41.603Z,61.29
2023-10-09T19:12:26.630Z,61.42
2023-10-09T19:15:12.207Z,61.34
2023-10-09T19:17:58.771Z,61.40
2023-10-09T19:20:44.073Z,61.43
2023-10-09T19:23:29.351Z,61.38
2023-10-09T19:26:18.952Z,61.47
2023-10-09T19:29:04.298Z,61.34
2023-10-09T19:31:50.776Z,61.51
2023-10-09T19:34:36.120Z,61.29
2023-10-09T19:37:22.921Z,61.48
2023-10-09T19:40:09.323Z,61.54
2023-10-09T19:42:55.242Z,61.66
2023-10-09T19:45:41.774Z,61.71
2023-10-09T19:48:27.070Z,61.81
2023-10-09T19:51:14.712Z,61.78
2023-10-09T19:54:00.260Z,61.86
2023-10-09T19:56:46.670Z,61.83
2023-10-09T19:59:32.248Z,61.91
2023-10-09T20:02:17.926Z,61.89
2023-10-09T20:05:03.991Z,61.88
2023-10-09T20:07:49.777Z,61.69
2023-10-09T20:10:38.992Z,61.75
2023-10-09T20:13:24.518Z,61.68
2023-10-09T20:16:10.506Z,61.72
2023-10-09T20:18:56.337Z,61.61
2023-10-09T20:21:45.398Z,61.93
2023-10-09T20:24:31.887Z,62.19
2023-10-09T20:27:18.451Z,62.35
2023-10-09T20:30:04.847Z,62.50
2023-10-09T20:35:41.058Z,62.82
2023-10-09T20:38:27.217Z,62.79
2023-10-09T20:41:12.638Z,62.91
2023-10-09T20:43:58.057Z,63.00
2023-10-09T20:46:43.557Z,63.12
2023-10-09T20:49:32.664Z,63.12
2023-10-09T20:52:17.752Z,63.08
2023-10-09T20:55:03.511Z,63.19
2023-10-09T20:57:57.970Z,63.22
2023-10-09T21:00:43.998Z,63.11
2023-10-09T21:03:47.183Z,63.25
2023-10-09T21:07:08.576Z,63.32
2023-10-09T21:09:54.357Z,63.37
2023-10-09T21:12:40.736Z,63.41
2023-10-09T21:15:27.993Z,63.58
2023-10-09T21:18:13.419Z,63.52
2023-10-09T21:21:00.810Z,63.45
2023-10-09T21:23:46.543Z,63.51
2023-10-09T21:26:32.538Z,63.57
2023-10-09T21:29:19.661Z,63.65
2023-10-09T21:32:08.169Z,63.74
2023-10-09T21:34:55.148Z,63.94
2023-10-09T21:37:40.692Z,64.07
2023-10-09T21:40:31.579Z,64.06
2023-10-09T21:43:19.169Z,63.87
2023-10-09T21:46:07.780Z,63.86
2023-10-09T21:48:53.059Z,63.83
2023-10-09T21:51:38.666Z,63.86
2023-10-09T21:54:23.998Z,63.86
2023-10-09T21:57:10.505Z,64.00
2023-10-09T21:59:55.603Z,63.85
2023-10-09T22:02:41.267Z,63.80
2023-10-09T22:05:27.714Z,63.69
2023-10-09T22:08:15.536Z,63.93
2023-10-09T22:11:02.932Z,64.09
2023-10-09T22:13:48.795Z,63.89
2023-10-09T22:16:39.713Z,63.82
2023-10-09T22:19:36.439Z,63.95
2023-10-09T22:22:23.727Z,64.01
2023-10-09T22:25:09.400Z,63.87
2023-10-09T22:28:03.803Z,63.90
2023-10-09T22:30:49.052Z,64.04
2023-10-09T22:33:50.102Z,63.90
2023-10-09T22:36:53.244Z,63.85
2023-10-09T22:39:42.274Z,64.01
2023-10-09T22:42:28.411Z,63.88
2023-10-09T22:45:15.423Z,63.87
2023-10-09T22:48:01.629Z,63.74
2023-10-09T22:50:48.556Z,64.00
2023-10-09T22:53:38.727Z,63.91
2023-10-09T22:56:24.425Z,63.99
2023-10-09T22:59:22.165Z,63.83
2023-10-09T23:02:11.058Z,63.88
2023-10-09T23:05:05.831Z,63.94
2023-10-09T23:08:01.522Z,63.85
2023-10-09T23:10:53.428Z,63.94
2023-10-09T23:13:53.683Z,63.95
2023-10-09T23:17:14.951Z,64.00
2023-10-09T23:20:00.822Z,64.00
2023-10-09T23:22:49.633Z,64.00
2023-10-09T23:25:35.310Z,63.94
2023-10-09T23:28:39.561Z,63.88
2023-10-09T23:31:27.175Z,64.04
2023-10-09T23:34:20.499Z,63.90
2023-10-09T23:37:06.358Z,64.11
2023-10-09T23:39:54.795Z,64.04
2023-10-09T23:42:40.040Z,64.11
2023-10-09T23:45:26.403Z,64.01
2023-10-09T23:48:13.959Z,64.03
2023-10-09T23:51:02.412Z,64.19
2023-10-09T23:53:53.909Z,63.83
2023-10-09T23:56:46.220Z,64.05
2023-10-09T23:59:39.920Z,63.97
